createdAt,value
2023-04-11T00:00:28.949Z,88.32
2023-04-11T00:03:00.112Z,88.36
2023-04-11T00:05:27.795Z,88.67
2023-04-11T00:07:54.342Z,88.83
2023-04-11T00:10:20.834Z,88.80
2023-04-11T00:12:47.246Z,88.88
2023-04-11T00:15:15.972Z,89.51
2023-04-11T00:17:45.654Z,90.02
2023-04-11T00:20:12.928Z,90.13
2023-04-11T00:22:39.547Z,89.60
2023-04-11T00:25:07.010Z,90.08
2023-04-11T00:27:33.493Z,90.85
2023-04-11T00:30:00.684Z,90.26
2023-04-11T00:32:27.705Z,90.09
2023-04-11T00:34:55.162Z,90.93
2023-04-11T00:37:21.540Z,90.23
2023-04-11T00:39:50.468Z,90.66
2023-04-11T00:42:17.095Z,91.06
2023-04-11T00:44:43.626Z,90.45
2023-04-11T00:47:10.337Z,90.67
2023-04-11T00:49:37.387Z,90.89
2023-04-11T00:52:05.822Z,90.57
2023-04-11T00:54:32.741Z,90.91
2023-04-11T00:57:01.654Z,91.00
2023-04-11T00:59:29.160Z,90.51
2023-04-11T01:01:56.591Z,90.97
2023-04-11T01:04:23.992Z,90.66
2023-04-11T01:06:58.458Z,89.53
2023-04-11T01:09:28.423Z,89.63
2023-04-11T01:11:56.105Z,89.56
2023-04-11T01:14:24.016Z,89.06
2023-04-11T01:16:50.766Z,89.52
2023-04-11T01:19:21.915Z,89.70
2023-04-11T01:21:50.961Z,88.98
2023-04-11T01:24:17.545Z,88.65
2023-04-11T01:26:44.465Z,88.56
2023-04-11T01:29:11.313Z,88.18
2023-04-11T01:31:37.905Z,87.80
2023-04-11T01:34:04.939Z,87.59
2023-04-11T01:36:32.225Z,87.10
2023-04-11T01:38:59.097Z,85.90
2023-04-11T01:41:26.810Z,84.98
2023-04-11T01:43:53.956Z,83.55
2023-04-11T01:46:21.785Z,82.36
2023-04-11T01:48:50.524Z,82.52
2023-04-11T01:51:17.037Z,81.58
2023-04-11T01:53:43.347Z,82.43
2023-04-11T01:56:10.465Z,82.25
2023-04-11T01:58:36.784Z,82.02
2023-04-11T02:01:03.217Z,82.57
2023-04-11T02:03:29.763Z,82.37
2023-04-11T02:05:56.247Z,82.71
2023-04-11T02:08:22.642Z,82.58
2023-04-11T02:10:49.109Z,83.10
2023-04-11T02:13:15.416Z,82.87
2023-04-11T02:15:41.921Z,83.50
2023-04-11T02:18:09.357Z,83.90
2023-04-11T02:20:40.383Z,83.58
2023-04-11T02:23:06.939Z,83.71
2023-04-11T02:25:33.772Z,83.73
2023-04-11T02:28:00.526Z,83.49
2023-04-11T02:30:26.890Z,83.36
2023-04-11T02:32:53.405Z,83.08
2023-04-11T02:35:19.877Z,82.33
2023-04-11T02:37:46.280Z,82.68
2023-04-11T02:40:12.885Z,81.70
2023-04-11T02:42:42.852Z,80.79
2023-04-11T02:45:09.569Z,81.37
2023-04-11T02:47:35.980Z,81.03
2023-04-11T02:50:02.407Z,81.34
2023-04-11T02:52:28.735Z,81.11
2023-04-11T02:54:55.102Z,80.21
2023-04-11T02:57:21.665Z,80.40
2023-04-11T02:59:48.045Z,80.74
2023-04-11T03:02:14.454Z,80.27
2023-04-11T03:04:40.926Z,81.44
2023-04-11T03:07:07.424Z,81.12
2023-04-11T03:09:33.754Z,81.16
2023-04-11T03:12:01.161Z,81.17
2023-04-11T03:14:27.527Z,80.69
2023-04-11T03:16:53.912Z,81.71
2023-04-11T03:19:20.239Z,81.04
2023-04-11T03:21:46.550Z,81.08
2023-04-11T03:24:12.916Z,81.52
2023-04-11T03:26:39.309Z,81.03
2023-04-11T03:29:05.940Z,81.13
2023-04-11T03:31:32.357Z,81.11
2023-04-11T03:33:59.209Z,81.26
2023-04-11T03:36:26.974Z,81.84
2023-04-11T03:38:53.629Z,81.56
2023-04-11T03:41:20.246Z,81.44
2023-04-11T03:43:46.631Z,81.62
2023-04-11T03:46:13.003Z,81.50
2023-04-11T03:48:39.404Z,81.24
2023-04-11T03:51:06.055Z,80.94
2023-04-11T03:53:32.444Z,80.72
2023-04-11T03:55:58.885Z,80.64
2023-04-11T03:58:25.332Z,81.10
2023-04-11T04:00:51.653Z,81.46
2023-04-11T04:03:18.555Z,81.38
2023-04-11T04:05:45.107Z,81.81
2023-04-11T04:08:11.493Z,81.44
2023-04-11T04:10:37.879Z,80.83
2023-04-11T04:13:05.353Z,80.73
2023-04-11T04:15:31.753Z,81.11
2023-04-11T04:17:58.185Z,81.46
2023-04-11T04:20:24.608Z,81.27
2023-04-11T04:22:53.838Z,81.44
2023-04-11T04:25:20.459Z,82.27
2023-04-11T04:27:47.524Z,81.50
2023-04-11T04:30:15.731Z,82.13
2023-04-11T04:32:44.116Z,81.95
2023-04-11T04:35:16.455Z,82.64
2023-04-11T04:37:45.699Z,81.98
2023-04-11T04:40:13.893Z,81.87
2023-04-11T04:42:43.964Z,81.89
2023-04-11T04:45:11.260Z,81.64
2023-04-11T04:47:38.575Z,81.67
2023-04-11T04:50:05.294Z,81.64
2023-04-11T04:52:31.737Z,81.66
2023-04-11T04:54:58.805Z,81.39
2023-04-11T04:57:29.914Z,81.79
2023-04-11T04:59:57.565Z,81.37
2023-04-11T05:02:27.802Z,81.38
2023-04-11T05:04:54.714Z,81.13
2023-04-11T05:07:21.122Z,81.33
2023-04-11T05:09:47.691Z,80.32
2023-04-11T05:12:16.123Z,80.49
2023-04-11T05:14:42.775Z,80.92
2023-04-11T05:17:09.193Z,80.51
2023-04-11T05:19:35.664Z,80.39
2023-04-11T05:22:02.144Z,79.72
2023-04-11T05:24:28.551Z,79.85
2023-04-11T05:26:54.904Z,79.62
2023-04-11T05:29:21.314Z,78.96
2023-04-11T05:31:47.681Z,78.57
2023-04-11T05:34:14.078Z,78.48
2023-04-11T05:36:42.019Z,78.93
2023-04-11T05:39:08.398Z,78.19
2023-04-11T05:41:34.768Z,78.55
2023-04-11T05:44:01.667Z,78.84
2023-04-11T05:46:29.250Z,79.28
2023-04-11T05:48:57.980Z,79.03
2023-04-11T05:51:24.363Z,78.09
2023-04-11T05:53:50.758Z,78.12
2023-04-11T05:56:17.239Z,78.24
2023-04-11T05:58:44.552Z,78.57
2023-04-11T06:01:18.086Z,78.33
2023-04-11T06:03:48.371Z,77.76
2023-04-11T06:06:15.127Z,77.14
2023-04-11T06:08:41.507Z,77.69
2023-04-11T06:11:08.075Z,77.25
2023-04-11T06:13:34.449Z,75.90
2023-04-11T06:16:01.375Z,75.26
2023-04-11T06:18:27.766Z,72.58
2023-04-11T06:20:54.135Z,71.87
2023-04-11T06:23:20.520Z,70.59
2023-04-11T06:25:46.905Z,68.41
2023-04-11T06:28:13.921Z,68.88
2023-04-11T06:30:40.293Z,68.43
2023-04-11T06:33:06.610Z,69.20
2023-04-11T06:35:32.994Z,69.38
2023-04-11T06:37:59.381Z,68.75
2023-04-11T06:40:25.871Z,67.50
2023-04-11T06:42:52.240Z,66.63
2023-04-11T06:45:18.827Z,68.44
2023-04-11T06:47:45.215Z,67.69
2023-04-11T06:50:11.982Z,68.95
2023-04-11T06:52:38.441Z,68.46
2023-04-11T06:55:07.072Z,68.21
2023-04-11T06:57:33.894Z,69.74
2023-04-11T07:00:00.238Z,69.46
2023-04-11T07:02:26.884Z,69.42
2023-04-11T07:04:53.531Z,68.36
2023-04-11T07:07:20.013Z,68.14
2023-04-11T07:09:47.419Z,67.78
2023-04-11T07:12:13.755Z,67.68
2023-04-11T07:14:40.303Z,66.42
2023-04-11T07:17:06.713Z,67.70
2023-04-11T07:19:33.108Z,67.51
2023-04-11T07:22:00.377Z,66.74
2023-04-11T07:24:27.214Z,66.35
2023-04-11T07:26:54.209Z,67.11
2023-04-11T07:29:21.287Z,65.99
2023-04-11T07:31:47.879Z,66.12
2023-04-11T07:34:14.324Z,65.34
2023-04-11T07:36:41.822Z,64.46
2023-04-11T07:39:12.135Z,63.47
2023-04-11T07:41:38.756Z,64.23
2023-04-11T07:44:09.497Z,64.77
2023-04-11T07:46:35.985Z,64.17
2023-04-11T07:49:02.377Z,63.09
2023-04-11T07:51:28.774Z,62.89
2023-04-11T07:53:55.411Z,62.71
2023-04-11T07:56:22.083Z,63.73
2023-04-11T07:58:48.405Z,64.41
2023-04-11T08:01:25.515Z,63.36
2023-04-11T08:03:54.695Z,61.09
2023-04-11T08:06:21.678Z,60.17
2023-04-11T08:08:49.320Z,58.77
2023-04-11T08:11:15.961Z,56.92
2023-04-11T08:13:42.966Z,59.46
2023-04-11T08:16:11.722Z,55.57
2023-04-11T08:18:41.970Z,58.52
2023-04-11T08:21:11.427Z,58.44
2023-04-11T08:23:39.616Z,57.67
2023-04-11T08:26:07.074Z,58.24
2023-04-11T08:28:33.423Z,60.75
2023-04-11T08:31:02.443Z,60.00
2023-04-11T08:33:29.111Z,56.95
2023-04-11T08:35:55.481Z,57.25
2023-04-11T08:38:21.805Z,59.27
2023-04-11T08:40:48.123Z,58.90
2023-04-11T08:43:14.571Z,58.96
2023-04-11T08:45:42.172Z,58.32
2023-04-11T08:48:09.379Z,55.65
2023-04-11T08:50:35.915Z,56.65
2023-04-11T08:53:03.568Z,56.65
2023-04-11T08:55:30.948Z,52.89
2023-04-11T08:57:59.552Z,52.40
2023-04-11T09:00:28.689Z,55.16
2023-04-11T09:03:00.927Z,55.48
2023-04-11T09:05:32.186Z,55.19
2023-04-11T09:08:00.754Z,56.73
2023-04-11T09:10:27.799Z,58.64
2023-04-11T09:12:55.774Z,58.16
2023-04-11T09:15:27.795Z,57.46
2023-04-11T09:17:57.016Z,58.16
2023-04-11T09:20:26.144Z,57.45
2023-04-11T09:22:53.792Z,58.26
2023-04-11T09:25:21.053Z,58.72
2023-04-11T09:27:47.962Z,58.33
2023-04-11T09:30:22.485Z,58.36
2023-04-11T09:32:50.143Z,56.81
2023-04-11T09:35:20.577Z,56.39
2023-04-11T09:37:52.613Z,53.38
2023-04-11T09:40:21.664Z,50.38
2023-04-11T09:42:49.256Z,50.38
2023-04-11T09:45:18.522Z,50.81
2023-04-11T09:47:46.189Z,51.06
2023-04-11T09:50:13.237Z,49.86
2023-04-11T09:52:41.640Z,50.52
2023-04-11T09:55:09.208Z,49.53
2023-04-11T09:57:36.133Z,52.48
2023-04-11T10:00:16.102Z,49.74
2023-04-11T10:02:44.945Z,49.37
2023-04-11T10:05:13.114Z,49.27
2023-04-11T10:08:05.742Z,47.00
2023-04-11T10:10:32.673Z,46.33
2023-04-11T10:12:59.173Z,47.26
2023-04-11T10:15:25.558Z,45.19
2023-04-11T10:18:12.524Z,46.30
2023-04-11T10:20:45.827Z,45.12
2023-04-11T10:23:13.822Z,45.08
2023-04-11T10:26:00.231Z,43.84
2023-04-11T10:28:30.202Z,45.06
2023-04-11T10:31:00.801Z,43.00
2023-04-11T10:33:28.064Z,46.41
2023-04-11T10:36:06.564Z,43.67
2023-04-11T10:38:48.394Z,45.29
2023-04-11T10:41:34.288Z,40.84
2023-04-11T10:44:15.643Z,42.29
2023-04-11T10:46:50.921Z,43.64
2023-04-11T10:49:37.854Z,45.83
2023-04-11T10:52:23.554Z,45.43
2023-04-11T10:54:52.381Z,41.20
2023-04-11T10:57:20.079Z,40.29
2023-04-11T10:59:49.390Z,41.05
2023-04-11T11:02:16.466Z,40.87
2023-04-11T11:04:43.058Z,40.55
2023-04-11T11:07:15.590Z,40.99
2023-04-11T11:09:48.062Z,38.68
2023-04-11T11:12:16.288Z,34.77
2023-04-11T11:14:45.082Z,38.54
2023-04-11T11:17:12.616Z,39.60
2023-04-11T11:19:44.865Z,41.72
2023-04-11T11:22:18.981Z,39.16
2023-04-11T11:24:45.529Z,38.87
2023-04-11T11:27:19.809Z,38.13
2023-04-11T11:29:46.315Z,39.88
2023-04-11T11:32:27.860Z,38.43
2023-04-11T11:34:55.188Z,40.36
2023-04-11T11:37:21.594Z,37.69
2023-04-11T11:39:48.684Z,37.66
2023-04-11T11:42:15.372Z,34.93
2023-04-11T11:44:41.976Z,38.96
2023-04-11T11:47:12.213Z,37.88
2023-04-11T11:49:45.538Z,39.55
2023-04-11T11:52:12.441Z,39.34
2023-04-11T11:54:46.963Z,38.85
2023-04-11T11:57:22.778Z,38.40
2023-04-11T11:59:56.862Z,39.14
2023-04-11T12:02:25.594Z,38.32
2023-04-11T12:04:59.961Z,36.94
2023-04-11T12:07:30.282Z,36.77
2023-04-11T12:10:01.604Z,36.82
2023-04-11T12:12:53.747Z,35.79
2023-04-11T12:15:22.409Z,35.19
2023-04-11T12:17:53.617Z,37.99
2023-04-11T12:20:27.268Z,38.38
2023-04-11T12:22:54.898Z,36.53
2023-04-11T12:25:21.912Z,36.77
2023-04-11T12:27:48.578Z,36.80
2023-04-11T12:30:15.325Z,35.87
2023-04-11T12:32:42.309Z,37.39
2023-04-11T12:35:09.414Z,35.25
2023-04-11T12:37:36.209Z,38.25
2023-04-11T12:40:06.961Z,40.53
2023-04-11T12:42:34.797Z,40.40
2023-04-11T12:45:04.166Z,36.60
2023-04-11T12:47:30.675Z,39.07
2023-04-11T12:49:57.096Z,37.11
2023-04-11T12:52:25.221Z,37.73
2023-04-11T12:54:51.757Z,35.78
2023-04-11T12:57:18.076Z,35.42
2023-04-11T12:59:44.481Z,36.72
2023-04-11T13:02:10.898Z,36.36
2023-04-11T13:04:37.528Z,34.91
2023-04-11T13:07:04.105Z,35.56
2023-04-11T13:09:33.784Z,33.63
2023-04-11T13:12:04.101Z,37.51
2023-04-11T13:14:30.636Z,36.84
2023-04-11T13:16:57.025Z,36.88
2023-04-11T13:19:23.743Z,37.02
2023-04-11T13:21:50.160Z,34.71
2023-04-11T13:24:16.686Z,33.56
2023-04-11T13:26:44.789Z,34.79
2023-04-11T13:29:13.501Z,34.83
2023-04-11T13:31:39.944Z,33.09
2023-04-11T13:34:06.430Z,32.13
2023-04-11T13:36:32.919Z,31.52
2023-04-11T13:38:59.438Z,33.60
2023-04-11T13:41:26.016Z,32.88
2023-04-11T13:43:52.597Z,30.56
2023-04-11T13:46:19.703Z,32.13
2023-04-11T13:48:45.971Z,33.50
2023-04-11T13:51:12.500Z,32.14
2023-04-11T13:53:39.246Z,31.92
2023-04-11T13:56:07.521Z,29.63
2023-04-11T13:58:34.374Z,29.88
2023-04-11T14:01:00.815Z,29.77
2023-04-11T14:03:30.136Z,30.30
2023-04-11T14:05:56.576Z,30.84
2023-04-11T14:08:22.942Z,30.63
2023-04-11T14:10:49.267Z,28.29
2023-04-11T14:13:15.626Z,29.44
2023-04-11T14:15:42.020Z,28.26
2023-04-11T14:18:08.424Z,27.12
2023-04-11T14:20:34.869Z,27.23
2023-04-11T14:23:01.489Z,27.36
2023-04-11T14:25:28.013Z,27.37
2023-04-11T14:27:54.403Z,29.56
2023-04-11T14:30:20.820Z,28.18
2023-04-11T14:32:47.214Z,27.59
2023-04-11T14:35:13.731Z,27.74
2023-04-11T14:37:40.390Z,29.58
2023-04-11T14:40:10.057Z,27.67
2023-04-11T14:42:39.741Z,28.32
2023-04-11T14:45:06.862Z,27.47
2023-04-11T14:47:33.295Z,27.68
2023-04-11T14:50:00.260Z,27.89
2023-04-11T14:52:26.702Z,27.39
2023-04-11T14:54:53.227Z,29.06
2023-04-11T14:57:22.573Z,28.72
2023-04-11T14:59:48.966Z,29.29
2023-04-11T15:02:15.692Z,27.15
2023-04-11T15:04:42.189Z,27.34
2023-04-11T15:07:08.705Z,28.14
2023-04-11T15:09:35.117Z,27.31
2023-04-11T15:12:02.235Z,28.60
2023-04-11T15:14:31.379Z,30.05
2023-04-11T15:16:57.778Z,29.76
2023-04-11T15:19:24.154Z,27.26
2023-04-11T15:21:50.456Z,27.45
2023-04-11T15:24:16.990Z,28.58
2023-04-11T15:26:44.671Z,29.49
2023-04-11T15:29:15.575Z,28.17
2023-04-11T15:31:42.138Z,28.43
2023-04-11T15:34:08.473Z,29.11
2023-04-11T15:36:38.179Z,28.57
2023-04-11T15:39:05.611Z,26.29
2023-04-11T15:41:32.041Z,27.11
2023-04-11T15:44:00.434Z,27.51
2023-04-11T15:46:27.130Z,27.34
2023-04-11T15:48:53.528Z,29.87
2023-04-11T15:51:19.968Z,29.42
2023-04-11T15:53:48.269Z,29.39
2023-04-11T15:56:14.614Z,30.71
2023-04-11T15:58:41.854Z,30.38
2023-04-11T16:01:20.896Z,32.14
2023-04-11T16:03:48.047Z,33.17
2023-04-11T16:06:14.543Z,35.26
2023-04-11T16:08:40.970Z,37.41
2023-04-11T16:11:07.281Z,35.36
2023-04-11T16:13:33.660Z,34.19
2023-04-11T16:16:00.624Z,31.71
2023-04-11T16:18:27.061Z,31.55
2023-04-11T16:20:53.468Z,32.11
2023-04-11T16:23:19.808Z,33.45
2023-04-11T16:25:46.729Z,34.73
2023-04-11T16:28:14.140Z,35.73
2023-04-11T16:30:40.481Z,36.21
2023-04-11T16:33:06.862Z,37.32
2023-04-11T16:35:33.273Z,36.94
2023-04-11T16:37:59.661Z,39.55
2023-04-11T16:40:26.164Z,39.52
2023-04-11T16:42:52.606Z,39.72
2023-04-11T16:45:18.976Z,39.17
2023-04-11T16:47:47.916Z,39.92
2023-04-11T16:50:17.616Z,40.38
2023-04-11T16:52:44.397Z,40.26
2023-04-11T16:55:11.017Z,41.99
2023-04-11T16:57:37.514Z,41.46
2023-04-11T17:00:17.175Z,41.52
2023-04-11T17:02:43.664Z,42.07
2023-04-11T17:05:10.354Z,41.85
2023-04-11T17:07:36.765Z,41.79
2023-04-11T17:10:03.205Z,43.54
2023-04-11T17:12:30.328Z,43.65
2023-04-11T17:14:56.655Z,43.79
2023-04-11T17:17:23.080Z,44.62
2023-04-11T17:19:49.478Z,45.33
2023-04-11T17:22:16.288Z,45.38
2023-04-11T17:24:42.689Z,46.71
2023-04-11T17:27:09.173Z,47.00
2023-04-11T17:29:35.624Z,46.91
2023-04-11T17:32:02.419Z,47.03
2023-04-11T17:34:28.811Z,47.05
2023-04-11T17:36:56.787Z,46.96
2023-04-11T17:39:23.416Z,47.45
2023-04-11T17:41:49.822Z,47.46
2023-04-11T17:44:16.136Z,48.46
2023-04-11T17:46:42.563Z,48.77
2023-04-11T17:49:08.923Z,48.77
2023-04-11T17:51:38.714Z,49.23
2023-04-11T17:54:05.728Z,49.97
2023-04-11T17:56:32.369Z,50.50
2023-04-11T17:58:58.689Z,50.17
2023-04-11T18:01:29.315Z,51.58
2023-04-11T18:03:56.026Z,52.98
2023-04-11T18:06:22.603Z,52.72
2023-04-11T18:08:51.811Z,53.04
2023-04-11T18:11:19.182Z,54.75
2023-04-11T18:13:48.332Z,54.05
2023-04-11T18:16:16.466Z,53.27
2023-04-11T18:18:42.974Z,53.89
2023-04-11T18:21:09.413Z,54.00
2023-04-11T18:23:35.767Z,54.00
2023-04-11T18:26:02.080Z,54.61
2023-04-11T18:28:29.160Z,53.70
2023-04-11T18:30:55.670Z,55.90
2023-04-11T18:33:22.227Z,53.86
2023-04-11T18:35:48.701Z,52.57
2023-04-11T18:38:15.325Z,52.56
2023-04-11T18:40:41.798Z,52.65
2023-04-11T18:43:08.319Z,52.87
2023-04-11T18:45:35.253Z,51.47
2023-04-11T18:48:02.033Z,52.12
2023-04-11T18:50:30.558Z,52.25
2023-04-11T18:53:01.360Z,51.95
2023-04-11T18:55:30.670Z,52.40
2023-04-11T18:57:59.497Z,53.01
2023-04-11T19:00:28.657Z,52.76
2023-04-11T19:02:55.390Z,52.34
2023-04-11T19:05:24.900Z,52.26
2023-04-11T19:07:51.708Z,52.94
2023-04-11T19:10:18.144Z,53.60
2023-04-11T19:12:44.512Z,52.70
2023-04-11T19:15:11.688Z,53.28
2023-04-11T19:17:38.887Z,54.69
2023-04-11T19:20:12.790Z,54.96
2023-04-11T19:22:40.727Z,55.80
2023-04-11T19:25:12.857Z,57.89
2023-04-11T19:27:41.656Z,58.15
2023-04-11T19:30:10.078Z,60.10
2023-04-11T19:32:38.703Z,60.12
2023-04-11T19:35:08.665Z,58.95
2023-04-11T19:37:36.177Z,58.44
2023-04-11T19:40:13.678Z,58.64
2023-04-11T19:42:40.847Z,57.85
2023-04-11T19:45:09.929Z,58.54
2023-04-11T19:47:36.302Z,58.95
2023-04-11T19:50:02.880Z,58.08
2023-04-11T19:52:29.277Z,58.60
2023-04-11T19:54:56.742Z,58.12
2023-04-11T19:57:25.485Z,58.60
2023-04-11T19:59:51.870Z,58.67
2023-04-11T20:02:18.478Z,58.63
2023-04-11T20:04:45.830Z,59.05
2023-04-11T20:07:12.434Z,59.30
2023-04-11T20:09:38.798Z,60.05
2023-04-11T20:12:06.221Z,59.45
2023-04-11T20:14:33.201Z,60.97
2023-04-11T20:16:59.696Z,59.81
2023-04-11T20:19:29.660Z,59.68
2023-04-11T20:21:56.240Z,60.19
2023-04-11T20:24:23.020Z,60.71
2023-04-11T20:26:50.813Z,60.54
2023-04-11T20:29:17.991Z,59.33
2023-04-11T20:31:44.646Z,61.17
2023-04-11T20:34:11.443Z,60.77
2023-04-11T20:36:38.056Z,61.41
2023-04-11T20:39:05.069Z,61.14
2023-04-11T20:41:32.206Z,61.14
2023-04-11T20:43:59.532Z,62.86
2023-04-11T20:46:29.546Z,62.24
2023-04-11T20:48:56.045Z,62.08
2023-04-11T20:51:22.380Z,61.75
2023-04-11T20:53:48.854Z,62.92
2023-04-11T20:56:15.179Z,62.93
2023-04-11T20:58:41.549Z,62.86
2023-04-11T21:01:07.925Z,63.18
2023-04-11T21:03:37.305Z,62.92
2023-04-11T21:06:07.282Z,63.60
2023-04-11T21:08:35.271Z,63.56
2023-04-11T21:11:01.940Z,64.01
2023-04-11T21:13:28.435Z,64.31
2023-04-11T21:15:54.932Z,64.79
2023-04-11T21:18:21.290Z,64.17
2023-04-11T21:20:47.600Z,64.38
2023-04-11T21:23:13.998Z,64.32
2023-04-11T21:25:40.369Z,65.05
2023-04-11T21:28:06.721Z,64.92
2023-04-11T21:30:33.083Z,65.53
2023-04-11T21:32:59.439Z,64.75
2023-04-11T21:35:25.993Z,65.50
2023-04-11T21:37:52.321Z,65.77
2023-04-11T21:40:18.765Z,65.14
2023-04-11T21:42:45.561Z,65.22
2023-04-11T21:45:12.017Z,65.47
2023-04-11T21:47:38.413Z,65.70
2023-04-11T21:50:05.511Z,65.29
2023-04-11T21:52:31.885Z,65.67
2023-04-11T21:54:58.272Z,66.01
2023-04-11T21:57:24.656Z,66.13
2023-04-11T21:59:51.048Z,66.73
2023-04-11T22:02:17.657Z,66.03
2023-04-11T22:04:56.425Z,67.00
2023-04-11T22:07:38.610Z,67.24
2023-04-11T22:10:09.508Z,67.66
2023-04-11T22:12:36.749Z,67.01
2023-04-11T22:15:03.890Z,67.66
2023-04-11T22:17:31.483Z,67.92
2023-04-11T22:19:58.282Z,68.94
2023-04-11T22:22:28.723Z,69.30
2023-04-11T22:24:57.684Z,69.35
2023-04-11T22:27:26.198Z,70.17
2023-04-11T22:29:59.707Z,70.85
2023-04-11T22:32:26.428Z,71.55
2023-04-11T22:34:52.845Z,72.04
2023-04-11T22:37:19.348Z,73.68
2023-04-11T22:39:45.790Z,72.76
2023-04-11T22:42:12.555Z,73.51
2023-04-11T22:44:39.015Z,74.08
2023-04-11T22:47:08.006Z,73.98
2023-04-11T22:49:41.735Z,74.55
2023-04-11T22:52:09.339Z,75.82
2023-04-11T22:54:35.866Z,75.18
2023-04-11T22:57:02.307Z,75.12
2023-04-11T22:59:28.715Z,75.89
2023-04-11T23:01:55.282Z,75.09
2023-04-11T23:04:22.193Z,75.71
2023-04-11T23:06:50.296Z,75.90
2023-04-11T23:09:20.231Z,76.85
2023-04-11T23:11:47.533Z,76.00
2023-04-11T23:14:15.352Z,76.98
2023-04-11T23:16:43.123Z,76.37
2023-04-11T23:19:09.966Z,75.95
2023-04-11T23:21:37.670Z,77.06
2023-04-11T23:24:05.489Z,77.37
2023-04-11T23:26:31.881Z,77.44
2023-04-11T23:28:58.235Z,77.14
2023-04-11T23:31:24.727Z,76.96
2023-04-11T23:33:51.161Z,78.31
2023-04-11T23:36:17.859Z,78.63
2023-04-11T23:38:44.854Z,78.50
2023-04-11T23:41:11.211Z,79.27
2023-04-11T23:43:37.570Z,79.91
2023-04-11T23:46:04.134Z,80.55
2023-04-11T23:48:30.543Z,81.11
2023-04-11T23:50:56.985Z,82.16
2023-04-11T23:53:23.380Z,82.75
2023-04-11T23:55:49.910Z,83.04
2023-04-11T23:58:16.245Z,83.69
